Time;durP1;ratioP1;P1;durP2;ratioP2;P2;SDS_P1;SDS_P2;PMS_P1;PMS_P2;Temp;Humidity;BMP_temperature;BMP_pressure;BME280_temperature;BME280_humidity;BME280_pressure;Samples;Min_cycle;Max_cycle;Signal;HPM_P1;HPM_P2
2021/01/09 00:01:12;;;;;;;17.10;13.37;;;3.20;99.90;;;;;;5041948;28;20504;-91
2021/01/09 00:03:38;;;;;;;17.13;14.00;;;3.20;99.90;;;;;;5040986;28;20472;-91
2021/01/09 00:06:05;;;;;;;15.60;13.43;;;3.20;99.90;;;;;;5043595;28;20445;-90
2021/01/09 00:08:32;;;;;;;15.33;12.97;;;3.20;99.90;;;;;;5041946;28;20451;-90
2021/01/09 00:10:59;;;;;;;17.10;13.70;;;3.20;99.90;;;;;;5038967;28;20481;-91
2021/01/09 00:13:25;;;;;;;15.73;13.93;;;3.20;99.90;;;;;;5044216;28;20480;-91
2021/01/09 00:15:51;;;;;;;21.30;14.20;;;3.20;99.90;;;;;;5045165;28;20817;-91
2021/01/09 00:18:17;;;;;;;15.47;12.93;;;3.30;99.90;;;;;;5044161;28;20476;-90
2021/01/09 00:20:44;;;;;;;23.60;16.33;;;3.20;99.90;;;;;;5044440;28;20467;-90
2021/01/09 00:23:11;;;;;;;16.70;14.40;;;3.20;99.90;;;;;;5043938;28;20543;-90
2021/01/09 00:25:38;;;;;;;14.43;12.20;;;3.20;99.90;;;;;;5044103;28;20452;-91
2021/01/09 00:28:05;;;;;;;17.73;12.03;;;3.20;99.90;;;;;;5044146;28;20445;-90
2021/01/09 00:30:31;;;;;;;17.43;14.10;;;3.30;99.90;;;;;;5040911;28;20506;-91
2021/01/09 00:32:57;;;;;;;20.50;16.07;;;3.20;99.90;;;;;;5039066;28;20522;-91
2021/01/09 00:35:24;;;;;;;18.27;13.87;;;3.20;99.90;;;;;;5044572;28;20448;-90
2021/01/09 00:37:50;;;;;;;21.17;14.87;;;3.20;99.90;;;;;;5055104;28;20420;-90
2021/01/09 00:40:16;;;;;;;17.13;13.17;;;3.20;99.90;;;;;;5050630;28;20443;-90
2021/01/09 00:42:47;;;;;;;15.73;13.63;;;3.20;99.90;;;;;;5043406;28;20475;-91
2021/01/09 00:45:13;;;;;;;20.30;13.67;;;3.20;99.90;;;;;;5043118;28;20479;-91
2021/01/09 00:47:39;;;;;;;19.07;14.73;;;3.20;99.90;;;;;;5041804;28;20448;-90
2021/01/09 00:50:07;;;;;;;16.60;12.80;;;3.10;99.90;;;;;;5043665;28;20506;-91
2021/01/09 00:52:34;;;;;;;15.07;13.47;;;3.10;99.90;;;;;;5044094;28;20472;-91
2021/01/09 00:55:00;;;;;;;18.70;14.40;;;3.10;99.90;;;;;;5044123;28;20444;-91
2021/01/09 00:57:26;;;;;;;16.37;14.43;;;3.20;99.90;;;;;;5043723;28;20448;-89
2021/01/09 00:59:54;;;;;;;15.77;14.10;;;3.20;99.90;;;;;;5041999;28;20440;-90
2021/01/09 01:02:20;;;;;;;13.53;12.10;;;3.20;99.90;;;;;;5042311;28;20448;-90
2021/01/09 01:04:47;;;;;;;17.37;13.37;;;3.20;99.90;;;;;;5042368;28;20449;-90
2021/01/09 01:07:14;;;;;;;19.40;15.27;;;3.20;99.90;;;;;;5043607;28;20453;-90
2021/01/09 01:09:40;;;;;;;21.30;16.10;;;3.20;99.90;;;;;;5041234;28;20453;-91
2021/01/09 01:12:10;;;;;;;17.93;14.60;;;3.20;99.90;;;;;;5035378;28;20562;-91
2021/01/09 01:14:37;;;;;;;17.87;13.90;;;3.30;99.90;;;;;;5041903;28;20460;-92
2021/01/09 01:17:05;;;;;;;17.33;14.73;;;3.30;99.90;;;;;;5044973;28;20456;-91
2021/01/09 01:19:31;;;;;;;18.53;14.03;;;3.20;99.90;;;;;;5042223;28;20463;-91
2021/01/09 01:21:57;;;;;;;20.70;16.03;;;3.20;99.90;;;;;;5042373;28;20437;-90
2021/01/09 01:24:23;;;;;;;16.63;13.17;;;3.30;99.90;;;;;;5043030;28;20499;-89
2021/01/09 01:26:50;;;;;;;17.70;15.60;;;3.30;99.90;;;;;;5042559;28;20455;-89
2021/01/09 01:29:16;;;;;;;18.30;14.50;;;3.30;99.90;;;;;;5043417;28;20503;-90
2021/01/09 01:31:42;;;;;;;18.60;15.67;;;3.30;99.90;;;;;;5043008;28;20477;-91
2021/01/09 01:34:10;;;;;;;17.13;15.00;;;3.30;99.90;;;;;;5043390;28;20996;-90
2021/01/09 01:36:36;;;;;;;18.63;14.77;;;3.30;99.90;;;;;;5043347;28;20448;-91
2021/01/09 01:39:03;;;;;;;17.73;15.70;;;3.40;99.90;;;;;;5042806;28;20855;-90
2021/01/09 01:41:29;;;;;;;17.30;13.47;;;3.40;99.90;;;;;;5042784;28;20445;-90
2021/01/09 01:43:55;;;;;;;20.30;15.13;;;3.40;99.90;;;;;;5042434;28;20587;-90
2021/01/09 01:46:22;;;;;;;21.40;16.10;;;3.40;99.90;;;;;;5041715;28;20441;-91
2021/01/09 01:48:48;;;;;;;18.77;15.50;;;3.40;99.90;;;;;;5042012;28;20448;-89
2021/01/09 01:51:16;;;;;;;21.33;16.47;;;3.40;99.90;;;;;;5041280;28;20542;-90
2021/01/09 01:53:42;;;;;;;18.57;15.97;;;3.40;99.90;;;;;;5042297;28;20477;-90
2021/01/09 01:56:09;;;;;;;21.53;17.50;;;3.30;99.90;;;;;;5042395;28;20974;-91
2021/01/09 01:58:35;;;;;;;21.80;17.50;;;3.30;99.90;;;;;;5042587;28;20456;-91
2021/01/09 02:01:02;;;;;;;23.10;18.00;;;3.40;99.90;;;;;;5042242;28;20446;-92
2021/01/09 02:03:28;;;;;;;22.03;16.90;;;3.40;99.90;;;;;;5041531;28;20465;-92
2021/01/09 02:06:00;;;;;;;20.33;17.53;;;3.40;99.90;;;;;;5040313;28;20448;-91
2021/01/09 02:08:31;;;;;;;24.60;16.83;;;3.40;99.90;;;;;;5033011;28;20445;-89
2021/01/09 02:11:02;;;;;;;24.37;17.17;;;3.40;99.90;;;;;;5033273;28;20476;-89
2021/01/09 02:13:39;;;;;;;23.03;17.87;;;3.40;99.90;;;;;;5042177;28;20476;-90
2021/01/09 02:16:06;;;;;;;22.73;18.10;;;3.40;99.90;;;;;;5039972;28;20448;-89
2021/01/09 02:18:36;;;;;;;22.47;17.30;;;3.40;99.90;;;;;;5040352;28;20441;-90
2021/01/09 02:21:06;;;;;;;24.83;19.27;;;3.40;99.90;;;;;;5038180;28;20507;-90
2021/01/09 02:23:33;;;;;;;21.37;17.13;;;3.40;99.90;;;;;;5034637;28;20472;-90
2021/01/09 02:26:00;;;;;;;24.33;18.40;;;3.40;99.90;;;;;;5034858;28;20964;-90
2021/01/09 02:28:27;;;;;;;27.10;19.47;;;3.40;99.90;;;;;;5038970;28;20445;-90
2021/01/09 02:30:55;;;;;;;22.03;16.20;;;3.40;99.90;;;;;;5036362;28;20496;-90
2021/01/09 02:33:23;;;;;;;23.40;18.93;;;3.40;99.90;;;;;;5036061;28;20469;-89
2021/01/09 02:35:51;;;;;;;23.47;18.87;;;3.40;99.90;;;;;;5038658;28;20451;-89
2021/01/09 02:38:18;;;;;;;21.83;18.20;;;3.40;99.90;;;;;;5037031;28;20457;-90
2021/01/09 02:40:45;;;;;;;24.13;18.67;;;3.30;99.90;;;;;;5039980;28;20458;-91
2021/01/09 02:43:12;;;;;;;24.83;18.30;;;3.30;99.90;;;;;;5038929;28;20537;-91
2021/01/09 02:45:39;;;;;;;21.67;17.33;;;3.40;99.90;;;;;;5041601;28;20458;-89
2021/01/09 02:48:06;;;;;;;24.27;18.43;;;3.40;99.90;;;;;;5042051;28;20453;-90
2021/01/09 02:50:32;;;;;;;25.90;19.20;;;3.30;99.90;;;;;;5041573;28;20476;-90
2021/01/09 02:52:59;;;;;;;24.80;18.97;;;3.30;99.90;;;;;;5042677;28;20472;-91
2021/01/09 02:55:25;;;;;;;23.60;18.40;;;3.40;99.90;;;;;;5045225;28;20456;-90
2021/01/09 02:57:52;;;;;;;22.97;17.90;;;3.40;99.90;;;;;;5052109;28;20488;-91
2021/01/09 03:00:19;;;;;;;26.00;19.17;;;3.40;99.90;;;;;;5041264;28;20456;-90
2021/01/09 03:02:46;;;;;;;24.53;19.10;;;3.40;99.90;;;;;;5040868;28;20477;-90
2021/01/09 03:05:13;;;;;;;24.67;19.50;;;3.40;99.90;;;;;;5039715;28;20518;-90
2021/01/09 03:07:40;;;;;;;24.17;19.20;;;3.40;99.90;;;;;;5038628;28;20443;-90
2021/01/09 03:10:07;;;;;;;28.30;21.23;;;3.40;99.90;;;;;;5039889;28;20444;-91
2021/01/09 03:12:34;;;;;;;23.03;18.50;;;3.40;99.90;;;;;;5043295;28;20484;-90
2021/01/09 03:15:01;;;;;;;29.30;19.87;;;3.40;99.90;;;;;;5041375;28;20448;-89
2021/01/09 03:17:28;;;;;;;26.17;20.20;;;3.40;99.90;;;;;;5040010;28;20442;-90
2021/01/09 03:19:54;;;;;;;22.20;17.57;;;3.40;99.90;;;;;;5042059;28;20475;-92
2021/01/09 03:22:21;;;;;;;27.40;19.57;;;3.30;99.90;;;;;;5040534;28;20479;-89
2021/01/09 03:24:47;;;;;;;24.40;19.63;;;3.40;99.90;;;;;;5040194;28;20514;-91
2021/01/09 03:27:13;;;;;;;27.50;20.20;;;3.30;99.90;;;;;;5040242;28;20453;-89
2021/01/09 03:29:40;;;;;;;24.50;17.30;;;3.30;99.90;;;;;;5040468;28;20449;-89
2021/01/09 03:32:07;;;;;;;25.20;20.67;;;3.30;99.90;;;;;;5040012;28;20481;-90
2021/01/09 03:34:33;;;;;;;25.50;18.10;;;3.40;99.90;;;;;;5040648;28;20477;-91
2021/01/09 03:36:59;;;;;;;26.17;19.80;;;3.40;99.90;;;;;;5041619;28;20443;-90
2021/01/09 03:39:25;;;;;;;28.47;18.50;;;3.30;99.90;;;;;;5041256;28;20448;-90
2021/01/09 03:41:52;;;;;;;26.27;19.33;;;3.40;99.90;;;;;;5042523;28;20524;-90
2021/01/09 03:44:18;;;;;;;26.97;19.20;;;3.30;99.90;;;;;;5041696;28;20460;-91
2021/01/09 03:46:45;;;;;;;24.13;19.23;;;3.30;99.90;;;;;;5041318;28;20584;-92
2021/01/09 03:49:12;;;;;;;25.43;18.33;;;3.30;99.90;;;;;;5041158;28;20948;-90
2021/01/09 03:51:39;;;;;;;24.70;18.57;;;3.30;99.90;;;;;;5039225;28;20484;-91
2021/01/09 03:54:06;;;;;;;27.23;18.93;;;3.30;99.90;;;;;;5041389;28;20465;-90
2021/01/09 03:56:32;;;;;;;26.17;20.23;;;3.30;99.90;;;;;;5040928;28;20451;-91
2021/01/09 03:58:59;;;;;;;23.97;18.53;;;3.30;99.90;;;;;;5041181;28;20460;-92
2021/01/09 04:01:25;;;;;;;23.97;18.90;;;3.30;99.90;;;;;;5039630;28;20448;-89
2021/01/09 04:03:51;;;;;;;25.97;20.10;;;3.30;99.90;;;;;;5040476;28;20496;-91
2021/01/09 04:06:19;;;;;;;23.50;17.43;;;3.20;99.90;;;;;;5038504;28;20449;-89
2021/01/09 04:08:45;;;;;;;24.67;19.20;;;3.20;99.90;;;;;;5034408;28;20507;-89
2021/01/09 04:11:11;;;;;;;28.10;19.67;;;3.20;99.90;;;;;;5036402;28;20581;-90
2021/01/09 04:13:38;;;;;;;29.23;20.37;;;3.20;99.90;;;;;;5038912;28;20973;-90
2021/01/09 04:16:04;;;;;;;25.53;18.50;;;3.20;99.90;;;;;;5037023;28;20511;-92
2021/01/09 04:18:31;;;;;;;26.17;18.33;;;3.20;99.90;;;;;;5037754;28;20459;-90
2021/01/09 04:20:57;;;;;;;27.70;19.97;;;3.20;99.90;;;;;;5036662;28;20448;-89
2021/01/09 04:23:24;;;;;;;23.33;17.30;;;3.10;99.90;;;;;;5038760;28;20463;-90
2021/01/09 04:25:51;;;;;;;26.27;19.67;;;3.10;99.90;;;;;;5039512;28;20452;-89
2021/01/09 04:28:17;;;;;;;27.00;19.60;;;3.10;99.90;;;;;;5038804;28;20486;-92
2021/01/09 04:30:43;;;;;;;26.90;19.47;;;3.00;99.90;;;;;;5038495;28;20490;-90
2021/01/09 04:33:10;;;;;;;29.17;21.77;;;3.00;99.90;;;;;;5038164;28;20499;-89
2021/01/09 04:35:36;;;;;;;23.90;19.23;;;3.00;99.90;;;;;;5038357;28;20451;-90
2021/01/09 04:38:02;;;;;;;31.47;20.50;;;2.90;99.90;;;;;;5036169;28;20456;-90
2021/01/09 04:40:30;;;;;;;31.57;21.00;;;2.90;99.90;;;;;;5033437;28;20456;-88
2021/01/09 04:42:56;;;;;;;25.43;20.00;;;2.90;99.90;;;;;;5036699;28;20827;-91
2021/01/09 04:45:23;;;;;;;25.50;20.57;;;2.90;99.90;;;;;;5038192;28;20460;-90
2021/01/09 04:47:50;;;;;;;28.90;20.77;;;2.90;99.90;;;;;;5039023;28;20457;-91
2021/01/09 04:50:18;;;;;;;27.40;20.07;;;2.90;99.90;;;;;;5039033;28;20486;-91
2021/01/09 04:52:46;;;;;;;27.33;20.63;;;3.00;99.90;;;;;;5043317;28;20468;-88
2021/01/09 04:55:13;;;;;;;26.17;19.23;;;3.10;99.90;;;;;;5038841;28;20456;-89
2021/01/09 04:57:40;;;;;;;28.53;20.90;;;3.10;99.90;;;;;;5043066;28;20452;-90
2021/01/09 05:00:07;;;;;;;29.57;21.90;;;3.00;99.90;;;;;;5042189;28;20464;-89
2021/01/09 05:02:35;;;;;;;27.77;20.83;;;3.00;99.90;;;;;;5042075;28;20539;-90
2021/01/09 05:05:02;;;;;;;32.13;22.83;;;3.00;99.90;;;;;;5042372;28;20452;-91
2021/01/09 05:07:28;;;;;;;33.47;21.80;;;3.00;99.90;;;;;;5040006;28;20455;-90
2021/01/09 05:10:05;;;;;;;26.00;20.00;;;3.00;99.90;;;;;;5043984;28;20441;-90
2021/01/09 05:12:35;;;;;;;26.00;19.87;;;3.10;99.90;;;;;;5043475;28;20475;-89
2021/01/09 05:15:05;;;;;;;29.30;21.60;;;3.00;99.90;;;;;;5052254;28;20463;-91
2021/01/09 05:17:32;;;;;;;28.33;21.17;;;3.00;99.90;;;;;;5039771;28;20455;-90
2021/01/09 05:19:59;;;;;;;28.53;21.50;;;3.00;99.90;;;;;;5042458;28;20449;-90
2021/01/09 05:22:26;;;;;;;28.50;20.67;;;3.10;99.90;;;;;;5043042;28;20454;-91
2021/01/09 05:24:53;;;;;;;27.27;21.33;;;3.10;99.90;;;;;;5043531;28;20444;-90
2021/01/09 05:27:20;;;;;;;27.90;23.20;;;3.10;99.90;;;;;;5043634;28;20464;-91
2021/01/09 05:29:51;;;;;;;30.10;21.93;;;3.10;99.90;;;;;;5042948;28;20459;-89
2021/01/09 05:32:19;;;;;;;29.53;21.77;;;3.00;99.90;;;;;;5042491;28;20520;-90
2021/01/09 05:34:48;;;;;;;34.70;22.90;;;3.00;99.90;;;;;;5042786;28;20478;-90
2021/01/09 05:37:19;;;;;;;26.27;20.20;;;3.00;99.90;;;;;;5036670;28;20444;-91
2021/01/09 05:39:50;;;;;;;28.60;20.13;;;3.00;99.90;;;;;;5041169;28;20449;-90
2021/01/09 05:42:17;;;;;;;26.97;20.60;;;3.00;99.90;;;;;;5043184;28;20452;-91
2021/01/09 05:44:45;;;;;;;28.53;21.43;;;3.00;99.90;;;;;;5040307;28;20448;-89
2021/01/09 05:47:11;;;;;;;29.93;21.17;;;3.00;99.90;;;;;;5042089;28;20459;-90
2021/01/09 05:49:42;;;;;;;29.53;22.03;;;3.00;99.90;;;;;;5039345;28;20993;-90
2021/01/09 05:52:09;;;;;;;28.30;21.57;;;3.00;99.90;;;;;;5035814;28;21113;-90
2021/01/09 05:54:36;;;;;;;33.57;23.60;;;3.00;99.90;;;;;;5035648;28;20507;-90
2021/01/09 05:57:04;;;;;;;32.50;22.47;;;3.00;99.90;;;;;;5042136;28;20475;-89
2021/01/09 05:59:32;;;;;;;28.70;21.90;;;3.00;99.90;;;;;;5039247;28;20443;-90
2021/01/09 06:02:00;;;;;;;37.13;24.13;;;3.00;99.90;;;;;;5035418;28;20441;-89
2021/01/09 06:04:29;;;;;;;31.33;22.70;;;3.00;99.90;;;;;;5039189;28;20473;-91
2021/01/09 06:07:06;;;;;;;32.43;22.90;;;3.00;99.90;;;;;;5040897;28;20455;-91
2021/01/09 06:09:35;;;;;;;28.07;22.10;;;3.00;99.90;;;;;;5033586;28;20429;-90
2021/01/09 06:12:06;;;;;;;33.53;24.30;;;3.00;99.90;;;;;;5039263;28;20555;-91
2021/01/09 06:14:35;;;;;;;31.30;23.10;;;3.00;99.90;;;;;;5042464;28;20495;-90
2021/01/09 06:17:02;;;;;;;30.97;23.00;;;3.00;99.90;;;;;;5040747;28;20482;-90
2021/01/09 06:19:28;;;;;;;30.80;23.27;;;3.00;99.90;;;;;;5035856;28;20473;-91
2021/01/09 06:21:56;;;;;;;34.03;24.63;;;3.00;99.90;;;;;;5039407;28;21007;-92
2021/01/09 06:24:24;;;;;;;34.50;22.97;;;3.00;99.90;;;;;;5038262;28;20453;-90
2021/01/09 06:26:51;;;;;;;33.23;23.70;;;2.90;99.90;;;;;;5042779;28;20469;-90
2021/01/09 06:29:22;;;;;;;32.33;24.60;;;3.00;99.90;;;;;;5041983;28;20458;-90
2021/01/09 06:31:54;;;;;;;34.27;23.53;;;3.00;99.90;;;;;;5040290;28;20477;-90
2021/01/09 06:34:22;;;;;;;30.30;23.87;;;3.00;99.90;;;;;;5037856;28;20468;-90
2021/01/09 06:36:55;;;;;;;35.73;23.30;;;3.00;99.90;;;;;;5041017;28;20462;-89
2021/01/09 06:39:24;;;;;;;33.60;23.80;;;3.00;99.90;;;;;;5037599;28;20463;-90
2021/01/09 06:41:55;;;;;;;29.90;23.30;;;3.00;99.90;;;;;;5039172;28;20460;-90
2021/01/09 06:44:23;;;;;;;33.37;24.60;;;3.00;99.90;;;;;;5038219;28;20465;-90
2021/01/09 06:46:51;;;;;;;31.97;23.20;;;3.10;99.90;;;;;;5036835;28;20449;-91
2021/01/09 06:49:18;;;;;;;34.50;23.60;;;3.10;99.90;;;;;;5039836;28;20498;-90
2021/01/09 06:51:51;;;;;;;33.87;24.23;;;3.10;99.90;;;;;;5039772;28;20529;-90
2021/01/09 06:54:29;;;;;;;35.70;23.70;;;3.00;99.90;;;;;;5040894;28;20473;-91
2021/01/09 06:57:18;;;;;;;35.90;24.60;;;3.00;99.90;;;;;;5041926;28;20445;-91
2021/01/09 06:59:46;;;;;;;34.53;24.63;;;3.10;99.90;;;;;;5039359;28;20479;-91
2021/01/09 07:02:21;;;;;;;32.13;23.20;;;3.10;99.90;;;;;;5039752;28;20440;-90
2021/01/09 07:05:19;;;;;;;32.63;22.43;;;3.10;99.90;;;;;;5037622;28;20451;-91
2021/01/09 07:07:53;;;;;;;33.40;25.07;;;3.00;99.90;;;;;;5029727;28;20535;-91
2021/01/09 07:10:23;;;;;;;34.33;23.63;;;3.00;99.90;;;;;;5031062;28;21023;-91
2021/01/09 07:12:53;;;;;;;37.23;24.00;;;3.00;99.90;;;;;;5031541;28;20468;-91
2021/01/09 07:15:20;;;;;;;30.43;22.50;;;3.00;99.90;;;;;;5030989;28;20483;-90
2021/01/09 07:17:51;;;;;;;36.87;26.33;;;3.00;99.90;;;;;;5031274;28;20452;-91
2021/01/09 07:20:20;;;;;;;35.77;25.07;;;3.10;99.90;;;;;;5030711;28;20476;-91
2021/01/09 07:22:49;;;;;;;41.73;26.67;;;3.00;99.90;;;;;;5037353;28;20471;-90
2021/01/09 07:25:27;;;;;;;37.70;24.63;;;3.00;99.90;;;;;;5030718;28;20465;-91
2021/01/09 07:27:56;;;;;;;34.17;24.87;;;2.90;99.90;;;;;;5029845;28;20457;-90
2021/01/09 07:30:23;;;;;;;40.67;27.03;;;2.80;99.90;;;;;;5046466;28;20449;-89
2021/01/09 07:32:51;;;;;;;39.10;26.90;;;2.80;99.90;;;;;;5042890;28;20464;-91
2021/01/09 07:35:22;;;;;;;38.67;29.13;;;2.80;99.90;;;;;;5033622;28;20493;-90
2021/01/09 07:37:51;;;;;;;41.53;28.53;;;2.80;99.90;;;;;;5032968;28;20444;-92
2021/01/09 07:40:19;;;;;;;40.13;25.83;;;2.70;99.90;;;;;;5031150;28;20543;-90
2021/01/09 07:42:48;;;;;;;37.50;27.17;;;2.70;99.90;;;;;;5029135;28;20566;-90
2021/01/09 07:45:16;;;;;;;40.03;27.43;;;2.70;99.90;;;;;;5029134;28;20439;-90
2021/01/09 07:47:44;;;;;;;38.03;28.20;;;2.80;99.90;;;;;;5031468;28;20447;-90
2021/01/09 07:50:14;;;;;;;40.80;27.23;;;2.80;99.90;;;;;;5030650;28;20526;-91
2021/01/09 07:52:41;;;;;;;40.30;26.80;;;2.70;99.90;;;;;;5030604;28;20900;-91
2021/01/09 07:55:08;;;;;;;40.17;27.23;;;2.80;99.90;;;;;;5030849;28;20502;-91
2021/01/09 07:57:36;;;;;;;44.83;29.00;;;2.80;99.90;;;;;;5030621;28;20578;-90
2021/01/09 08:03:00;;;;;;;40.33;29.00;;;2.80;99.90;;;;;;5130214;27;21069;-89
2021/01/09 08:05:26;;;;;;;37.87;26.90;;;2.70;99.90;;;;;;5119647;28;20448;-91
2021/01/09 08:07:54;;;;;;;37.40;27.10;;;2.80;99.90;;;;;;5119878;27;20857;-89
2021/01/09 08:10:24;;;;;;;39.23;27.77;;;2.80;99.90;;;;;;5118694;27;20503;-90
2021/01/09 08:12:55;;;;;;;37.87;27.80;;;2.90;99.90;;;;;;5120157;28;20846;-91
2021/01/09 08:15:21;;;;;;;37.60;26.90;;;3.00;99.90;;;;;;5114914;28;20444;-90
2021/01/09 08:17:47;;;;;;;43.80;29.70;;;3.00;99.90;;;;;;5120020;27;20460;-91
2021/01/09 08:20:18;;;;;;;43.23;27.03;;;3.00;99.90;;;;;;5115637;28;20444;-90
2021/01/09 08:22:52;;;;;;;43.77;30.30;;;3.10;99.90;;;;;;5114019;28;20482;-91
2021/01/09 08:25:19;;;;;;;40.43;27.10;;;3.00;99.90;;;;;;5116976;28;20474;-91
2021/01/09 08:27:47;;;;;;;48.53;31.40;;;3.10;99.90;;;;;;5117501;27;20455;-90
2021/01/09 08:30:17;;;;;;;40.83;29.03;;;3.00;99.90;;;;;;5106476;28;20505;-90
2021/01/09 08:32:43;;;;;;;41.10;29.23;;;3.10;99.90;;;;;;5116272;27;20455;-90
2021/01/09 08:35:11;;;;;;;47.97;29.93;;;3.20;99.90;;;;;;5112001;28;20472;-91
2021/01/09 08:37:39;;;;;;;43.47;30.43;;;3.20;99.90;;;;;;5095749;27;20446;-90
2021/01/09 08:40:16;;;;;;;49.27;30.20;;;3.30;99.90;;;;;;5113823;28;20452;-90
2021/01/09 08:42:56;;;;;;;42.17;28.87;;;3.30;99.90;;;;;;5117361;28;20852;-91
2021/01/09 08:45:49;;;;;;;45.10;30.07;;;3.40;99.90;;;;;;5108212;28;20441;-88
2021/01/09 08:48:21;;;;;;;40.80;28.30;;;3.50;99.90;;;;;;5107384;28;20450;-90
2021/01/09 08:50:58;;;;;;;41.53;27.60;;;3.50;99.90;;;;;;5112816;28;20469;-90
2021/01/09 08:53:27;;;;;;;44.93;27.30;;;3.60;99.90;;;;;;5116304;27;20898;-82
2021/01/09 08:56:01;;;;;;;42.20;28.87;;;3.60;99.90;;;;;;5090839;28;20478;-87
2021/01/09 08:58:30;;;;;;;44.97;29.20;;;3.60;99.90;;;;;;5091007;28;20923;-83
2021/01/09 09:00:57;;;;;;;43.10;29.50;;;3.60;99.90;;;;;;5099554;28;20581;-80
2021/01/09 09:03:24;;;;;;;38.33;27.43;;;3.60;99.90;;;;;;5099375;28;20465;-78
2021/01/09 09:05:51;;;;;;;42.30;29.20;;;3.60;99.90;;;;;;5091790;28;20456;-79
2021/01/09 09:08:19;;;;;;;40.70;29.50;;;3.70;99.90;;;;;;5104184;28;20544;-87
2021/01/09 09:10:47;;;;;;;45.00;32.70;;;3.60;99.90;;;;;;5093937;28;20528;-86
2021/01/09 09:13:22;;;;;;;46.30;30.70;;;3.60;99.90;;;;;;5095775;28;20505;-87
2021/01/09 09:15:50;;;;;;;44.87;29.63;;;3.70;99.90;;;;;;5078758;28;20473;-86
2021/01/09 09:18:17;;;;;;;48.97;31.17;;;3.60;99.90;;;;;;5076678;28;20452;-86
2021/01/09 09:20:49;;;;;;;46.83;31.07;;;3.70;99.90;;;;;;5087816;28;20535;-88
2021/01/09 09:23:16;;;;;;;42.20;29.67;;;3.60;99.90;;;;;;5084281;28;20519;-86
2021/01/09 09:25:43;;;;;;;38.10;26.73;;;3.60;99.90;;;;;;5093459;28;20479;-87
2021/01/09 09:28:10;;;;;;;42.50;29.53;;;3.60;99.90;;;;;;5077087;28;20473;-87
2021/01/09 09:30:36;;;;;;;42.67;26.40;;;3.50;99.90;;;;;;5088979;28;20450;-89
2021/01/09 09:33:11;;;;;;;36.57;25.27;;;3.50;99.90;;;;;;5082591;28;20465;-92
2021/01/09 09:35:38;;;;;;;38.90;28.70;;;3.50;99.90;;;;;;5079671;28;20541;-87
2021/01/09 09:38:04;;;;;;;38.10;26.97;;;3.50;99.90;;;;;;5090281;28;20446;-87
2021/01/09 09:40:32;;;;;;;41.47;27.00;;;3.50;99.90;;;;;;5077689;28;20562;-88
2021/01/09 09:43:12;;;;;;;40.47;25.30;;;3.50;99.90;;;;;;5089803;28;20479;-87
2021/01/09 09:45:39;;;;;;;38.03;25.13;;;3.50;99.90;;;;;;5084034;28;20495;-89
2021/01/09 09:48:06;;;;;;;39.27;26.37;;;3.50;99.90;;;;;;5087684;28;20447;-87
2021/01/09 09:50:34;;;;;;;34.23;24.10;;;3.40;99.90;;;;;;5080262;28;20499;-86
2021/01/09 09:53:02;;;;;;;37.33;25.23;;;3.40;99.90;;;;;;5074007;28;20474;-87
2021/01/09 09:55:28;;;;;;;33.63;23.50;;;3.50;99.90;;;;;;5078509;28;20456;-89
2021/01/09 09:58:08;;;;;;;37.00;25.47;;;3.60;99.90;;;;;;5094087;28;20445;-88
2021/01/09 10:00:41;;;;;;;31.33;22.60;;;3.70;99.90;;;;;;5088247;28;20486;-88
2021/01/09 10:03:08;;;;;;;36.93;26.30;;;3.80;99.90;;;;;;5073700;28;20444;-88
2021/01/09 10:05:34;;;;;;;40.07;25.43;;;3.90;99.90;;;;;;5077560;28;20446;-87
2021/01/09 10:08:11;;;;;;;35.07;24.13;;;4.00;99.90;;;;;;5092648;28;20449;-86
2021/01/09 10:10:37;;;;;;;34.20;23.50;;;4.00;99.90;;;;;;5073259;28;20438;-87
2021/01/09 10:13:04;;;;;;;34.87;24.80;;;3.90;99.90;;;;;;5075471;28;20459;-95
2021/01/09 10:15:30;;;;;;;37.93;23.30;;;3.90;99.90;;;;;;5073713;28;20546;-85
2021/01/09 10:17:59;;;;;;;28.33;20.73;;;4.10;99.90;;;;;;5073608;28;20443;-86
2021/01/09 10:20:26;;;;;;;32.33;21.27;;;4.20;99.90;;;;;;5091553;28;20207;-89
2021/01/09 10:22:52;;;;;;;32.57;23.17;;;4.30;99.90;;;;;;5093275;28;20485;-87
2021/01/09 10:25:19;;;;;;;33.43;21.17;;;4.40;99.90;;;;;;5074558;28;20454;-86
2021/01/09 10:27:45;;;;;;;30.03;21.27;;;4.30;99.90;;;;;;5072702;28;20451;-85
2021/01/09 10:30:12;;;;;;;27.57;19.43;;;4.30;99.90;;;;;;5087872;28;21157;-86
2021/01/09 10:32:39;;;;;;;32.07;21.43;;;4.20;99.90;;;;;;5092684;28;20481;-87
2021/01/09 10:35:07;;;;;;;32.70;23.17;;;4.10;99.90;;;;;;5078210;28;20450;-87
2021/01/09 10:37:33;;;;;;;27.93;21.27;;;4.10;99.90;;;;;;5072514;28;20450;-86
2021/01/09 10:39:59;;;;;;;30.50;20.47;;;4.10;99.90;;;;;;5084836;28;20671;-88
2021/01/09 10:42:28;;;;;;;33.20;21.80;;;4.20;99.90;;;;;;5092526;28;20482;-87
2021/01/09 10:44:54;;;;;;;27.50;21.10;;;4.30;99.90;;;;;;5081318;28;20457;-87
2021/01/09 10:47:20;;;;;;;29.13;22.13;;;4.40;99.90;;;;;;5072417;28;20449;-88
2021/01/09 10:49:46;;;;;;;34.40;24.67;;;4.60;99.90;;;;;;5081321;28;20451;-87
2021/01/09 10:52:13;;;;;;;32.50;23.23;;;4.70;99.90;;;;;;5092869;28;20448;-87
2021/01/09 10:54:39;;;;;;;32.87;24.00;;;4.70;99.90;;;;;;5084970;28;20451;-87
2021/01/09 10:57:06;;;;;;;30.67;22.80;;;4.70;99.90;;;;;;5072456;28;20454;-87
2021/01/09 10:59:32;;;;;;;31.50;21.03;;;4.60;99.90;;;;;;5077742;28;20457;-87
2021/01/09 11:02:02;;;;;;;25.60;19.40;;;4.50;99.90;;;;;;5091251;28;20510;-88
2021/01/09 11:04:29;;;;;;;24.60;18.27;;;4.40;99.90;;;;;;5072036;28;20512;-87
2021/01/09 11:06:57;;;;;;;25.30;16.67;;;4.40;99.90;;;;;;5072089;28;20450;-87
2021/01/09 11:09:25;;;;;;;19.93;15.57;;;4.30;99.90;;;;;;5071761;28;20605;-87
2021/01/09 11:11:51;;;;;;;20.00;15.70;;;4.20;99.90;;;;;;5072280;28;20451;-88
2021/01/09 11:14:18;;;;;;;15.60;12.50;;;4.30;99.90;;;;;;5071862;28;20470;-88
2021/01/09 11:16:44;;;;;;;18.00;14.23;;;4.50;99.90;;;;;;5071617;28;20457;-87
2021/01/09 11:19:10;;;;;;;14.80;12.40;;;4.70;99.90;;;;;;5071619;28;20442;-88
2021/01/09 11:21:37;;;;;;;14.83;11.90;;;4.90;99.90;;;;;;5071652;28;20471;-88
2021/01/09 11:24:04;;;;;;;17.13;13.27;;;5.20;99.90;;;;;;5071889;28;20551;-88
2021/01/09 11:26:31;;;;;;;14.67;11.80;;;5.30;99.90;;;;;;5070674;28;20885;-88
2021/01/09 11:28:57;;;;;;;16.20;12.50;;;5.10;99.90;;;;;;5072051;28;20439;-86
2021/01/09 11:31:24;;;;;;;14.73;11.90;;;5.00;99.90;;;;;;5071626;28;21036;-88
2021/01/09 11:33:56;;;;;;;16.37;12.80;;;4.90;99.90;;;;;;5072908;28;20481;-88
2021/01/09 11:36:22;;;;;;;13.27;10.53;;;4.90;99.90;;;;;;5083764;28;20509;-88
2021/01/09 11:38:49;;;;;;;13.70;11.23;;;5.00;99.90;;;;;;5071301;28;20960;-88
2021/01/09 11:41:15;;;;;;;16.83;12.27;;;5.00;99.90;;;;;;5071591;28;20475;-89
2021/01/09 11:43:43;;;;;;;18.00;11.80;;;4.80;99.90;;;;;;5071265;28;20475;-88
2021/01/09 11:46:10;;;;;;;14.73;11.30;;;4.70;99.90;;;;;;5071280;28;20486;-87
2021/01/09 11:48:36;;;;;;;14.17;11.67;;;4.60;99.90;;;;;;5071461;28;20457;-88
2021/01/09 11:51:03;;;;;;;14.57;10.67;;;4.50;99.90;;;;;;5071370;28;20461;-87
2021/01/09 11:53:29;;;;;;;13.30;10.27;;;4.60;99.90;;;;;;5070763;28;20459;-88
2021/01/09 11:55:55;;;;;;;16.33;12.73;;;4.60;99.90;;;;;;5070945;28;20548;-87
2021/01/09 11:58:21;;;;;;;13.23;11.23;;;4.60;99.90;;;;;;5071756;28;20950;-87
2021/01/09 12:00:50;;;;;;;14.93;11.53;;;4.60;99.90;;;;;;5071064;28;20454;-86
2021/01/09 12:03:16;;;;;;;14.37;11.50;;;4.40;99.90;;;;;;5075007;28;20454;-87
2021/01/09 12:05:43;;;;;;;13.93;11.63;;;4.30;99.90;;;;;;5082054;28;20454;-87
2021/01/09 12:08:09;;;;;;;13.93;11.30;;;4.50;99.90;;;;;;5071513;28;20446;-87
2021/01/09 12:10:35;;;;;;;13.53;11.80;;;4.70;99.90;;;;;;5076359;28;20450;-87
2021/01/09 12:13:03;;;;;;;13.03;11.60;;;4.90;99.90;;;;;;5082718;28;20490;-87
2021/01/09 12:15:29;;;;;;;14.00;12.17;;;5.10;99.90;;;;;;5071219;28;20473;-88
2021/01/09 12:17:56;;;;;;;11.87;9.90;;;5.30;99.90;;;;;;5077801;28;20514;-87
2021/01/09 12:20:23;;;;;;;12.47;9.77;;;5.40;99.20;;;;;;5090264;28;20831;-88
2021/01/09 12:22:49;;;;;;;16.20;10.50;;;5.40;98.60;;;;;;5070500;28;20490;-88
2021/01/09 12:25:15;;;;;;;13.30;10.23;;;5.60;98.30;;;;;;5092456;28;20436;-87
2021/01/09 12:27:41;;;;;;;12.20;9.47;;;5.90;97.80;;;;;;5096233;28;20817;-88
2021/01/09 12:30:08;;;;;;;16.67;9.83;;;6.10;97.00;;;;;;5103422;28;20564;-91
2021/01/09 12:32:35;;;;;;;10.87;9.30;;;6.30;96.60;;;;;;5101931;28;20877;-89
2021/01/09 12:35:03;;;;;;;9.53;8.03;;;6.00;95.80;;;;;;5097368;28;20447;-89
2021/01/09 12:37:29;;;;;;;9.63;8.60;;;5.80;95.70;;;;;;5096320;28;20443;-91
2021/01/09 12:39:55;;;;;;;9.47;8.47;;;5.70;96.00;;;;;;5081843;28;20447;-89
2021/01/09 12:42:24;;;;;;;10.10;8.03;;;5.60;95.50;;;;;;5069736;28;20475;-90
2021/01/09 12:44:50;;;;;;;11.10;8.90;;;5.40;95.70;;;;;;5080747;28;20450;-88